createdAt,value
2022-07-26T00:00:19.087Z,1005.08
2022-07-26T00:01:19.148Z,1005.19
2022-07-26T00:02:19.161Z,1005.28
2022-07-26T00:03:19.078Z,1005.33
2022-07-26T00:04:19.058Z,1005.34
2022-07-26T00:05:19.062Z,1005.31
2022-07-26T00:06:19.251Z,1005.29
2022-07-26T00:07:19.201Z,1005.17
2022-07-26T00:08:19.017Z,1005.05
2022-07-26T00:09:18.995Z,1005.00
2022-07-26T00:10:18.994Z,1004.96
2022-07-26T00:11:19.325Z,1004.90
2022-07-26T00:12:18.962Z,1004.85
2022-07-26T00:13:18.967Z,1004.86
2022-07-26T00:14:18.936Z,1004.83
2022-07-26T00:15:18.926Z,1004.83
2022-07-26T00:16:18.970Z,1004.87
2022-07-26T00:17:18.945Z,1004.88
2022-07-26T00:18:18.893Z,1004.88
2022-07-26T00:19:18.882Z,1004.90
2022-07-26T00:20:18.872Z,1004.89
2022-07-26T00:21:18.872Z,1004.92
2022-07-26T00:22:18.954Z,1004.93
2022-07-26T00:23:18.857Z,1004.88
2022-07-26T00:24:18.825Z,1004.86
2022-07-26T00:25:18.823Z,1004.89
2022-07-26T00:26:18.904Z,1004.90
2022-07-26T00:27:18.798Z,1004.92
2022-07-26T00:28:18.869Z,1004.92
2022-07-26T00:29:18.774Z,1004.92
2022-07-26T00:30:18.768Z,1004.98
2022-07-26T00:31:18.858Z,1004.97
2022-07-26T00:32:18.741Z,1005.00
2022-07-26T00:33:18.742Z,1005.03
2022-07-26T00:34:18.723Z,1004.93
2022-07-26T00:35:18.710Z,1004.97
2022-07-26T00:36:18.705Z,1004.91
2022-07-26T00:37:20.608Z,1004.95
2022-07-26T00:38:18.694Z,1004.89
2022-07-26T00:39:18.678Z,1004.93
2022-07-26T00:40:18.685Z,1004.96
2022-07-26T00:41:19.511Z,1004.97
2022-07-26T00:42:18.629Z,1005.03
2022-07-26T00:43:18.638Z,1005.03
2022-07-26T00:44:18.604Z,1005.05
2022-07-26T00:45:18.648Z,1005.04
2022-07-26T00:46:18.658Z,1004.99
2022-07-26T00:47:18.576Z,1005.02
2022-07-26T00:48:18.571Z,1005.04
2022-07-26T00:49:18.665Z,1004.99
2022-07-26T00:50:18.539Z,1004.98
2022-07-26T00:51:18.528Z,1005.00
2022-07-26T00:52:18.515Z,1004.98
2022-07-26T00:53:18.535Z,1005.02
2022-07-26T00:54:18.498Z,1005.01
2022-07-26T00:55:18.480Z,1005.01
2022-07-26T00:56:18.474Z,1005.02
2022-07-26T00:57:18.461Z,1005.01
2022-07-26T00:58:18.857Z,1004.99
2022-07-26T00:59:18.437Z,1004.94
2022-07-26T01:00:18.434Z,1004.95
2022-07-26T01:01:18.477Z,1004.90
2022-07-26T01:02:18.750Z,1004.99
2022-07-26T01:03:18.422Z,1005.01
2022-07-26T01:04:18.383Z,1005.04
2022-07-26T01:05:18.372Z,1005.00
2022-07-26T01:06:18.360Z,1005.00
2022-07-26T01:07:18.350Z,1005.01
2022-07-26T01:08:18.358Z,1005.01
2022-07-26T01:09:18.342Z,1005.00
2022-07-26T01:10:18.312Z,1005.02
2022-07-26T01:11:18.303Z,1004.98
2022-07-26T01:12:18.303Z,1005.04
2022-07-26T01:13:18.294Z,1005.10
2022-07-26T01:14:18.270Z,1005.08
2022-07-26T01:15:18.258Z,1005.03
2022-07-26T01:16:18.337Z,1005.02
2022-07-26T01:17:18.989Z,1004.97
2022-07-26T01:18:18.244Z,1005.00
2022-07-26T01:19:18.228Z,1005.08
2022-07-26T01:20:18.209Z,1005.08
2022-07-26T01:21:18.190Z,1005.17
2022-07-26T01:22:18.180Z,1005.21
2022-07-26T01:23:18.169Z,1005.27
2022-07-26T01:24:18.170Z,1005.30
2022-07-26T01:25:18.146Z,1005.30
2022-07-26T01:26:18.134Z,1005.32
2022-07-26T01:27:18.120Z,1005.29
2022-07-26T01:28:20.106Z,1005.27
2022-07-26T01:29:18.101Z,1005.24
2022-07-26T01:30:18.092Z,1005.28
2022-07-26T01:31:18.124Z,1005.30
2022-07-26T01:32:18.321Z,1005.35
2022-07-26T01:33:18.060Z,1005.32
2022-07-26T01:34:18.045Z,1005.28
2022-07-26T01:35:18.033Z,1005.28
2022-07-26T01:36:18.034Z,1005.30
2022-07-26T01:37:18.009Z,1005.38
2022-07-26T01:38:17.994Z,1005.41
2022-07-26T01:39:18.018Z,1005.43
2022-07-26T01:40:17.976Z,1005.40
2022-07-26T01:41:17.984Z,1005.44
2022-07-26T01:42:18.952Z,1005.38
2022-07-26T01:43:17.944Z,1005.35
2022-07-26T01:44:17.934Z,1005.28
2022-07-26T01:45:18.183Z,1005.33
2022-07-26T01:46:17.987Z,1005.30
2022-07-26T01:47:17.901Z,1005.33
2022-07-26T01:48:17.889Z,1005.26
2022-07-26T01:49:18.611Z,1005.27
2022-07-26T01:50:17.875Z,1005.26
2022-07-26T01:51:17.866Z,1005.31
2022-07-26T01:52:17.842Z,1005.30
2022-07-26T01:53:17.842Z,1005.33
2022-07-26T01:54:22.562Z,1005.36
2022-07-26T01:55:18.823Z,1005.36
2022-07-26T01:56:17.795Z,1005.37
2022-07-26T01:57:17.781Z,1005.42
2022-07-26T01:58:17.773Z,1005.38
2022-07-26T01:59:18.608Z,1005.38
2022-07-26T02:00:27.120Z,1005.40
2022-07-26T02:01:38.037Z,1005.43
2022-07-26T02:02:18.912Z,1005.43
2022-07-26T02:03:17.783Z,1005.41
2022-07-26T02:04:17.705Z,1005.34
2022-07-26T02:05:17.727Z,1005.40
2022-07-26T02:06:17.687Z,1005.40
2022-07-26T02:07:17.694Z,1005.42
2022-07-26T02:08:17.973Z,1005.43
2022-07-26T02:09:17.673Z,1005.46
2022-07-26T02:10:17.662Z,1005.44
2022-07-26T02:11:17.669Z,1005.47
2022-07-26T02:12:17.629Z,1005.46
2022-07-26T02:13:17.612Z,1005.52
2022-07-26T02:14:25.634Z,1005.52
2022-07-26T02:15:18.607Z,1005.54
2022-07-26T02:16:17.703Z,1005.52
2022-07-26T02:17:17.570Z,1005.51
2022-07-26T02:18:17.558Z,1005.53
2022-07-26T02:19:17.729Z,1005.51
2022-07-26T02:20:17.550Z,1005.50
2022-07-26T02:21:17.526Z,1005.48
2022-07-26T02:22:17.510Z,1005.47
2022-07-26T02:23:17.654Z,1005.44
2022-07-26T02:24:17.490Z,1005.42
2022-07-26T02:25:18.534Z,1005.42
2022-07-26T02:26:17.469Z,1005.39
2022-07-26T02:27:17.495Z,1005.34
2022-07-26T02:28:17.449Z,1005.38
2022-07-26T02:29:17.439Z,1005.45
2022-07-26T02:30:17.424Z,1005.40
2022-07-26T02:31:17.509Z,1005.40
2022-07-26T02:32:17.399Z,1005.41
2022-07-26T02:33:17.393Z,1005.40
2022-07-26T02:34:17.382Z,1005.38
2022-07-26T02:35:17.373Z,1005.39
2022-07-26T02:36:17.381Z,1005.39
2022-07-26T02:37:17.345Z,1005.38
2022-07-26T02:38:17.335Z,1005.42
2022-07-26T02:39:17.347Z,1005.47
2022-07-26T02:40:19.507Z,1005.47
2022-07-26T02:41:17.324Z,1005.46
2022-07-26T02:42:17.297Z,1005.46
2022-07-26T02:43:17.283Z,1005.39
2022-07-26T02:44:17.272Z,1005.42
2022-07-26T02:45:17.349Z,1005.43
2022-07-26T02:46:17.279Z,1005.40
2022-07-26T02:47:17.250Z,1005.39
2022-07-26T02:48:17.226Z,1005.43
2022-07-26T02:49:17.251Z,1005.40
2022-07-26T02:50:17.210Z,1005.41
2022-07-26T02:51:17.607Z,1005.36
2022-07-26T02:52:17.186Z,1005.41
2022-07-26T02:53:17.175Z,1005.39
2022-07-26T02:54:17.172Z,1005.41
2022-07-26T02:55:17.156Z,1005.41
2022-07-26T02:56:17.156Z,1005.43
2022-07-26T02:57:18.086Z,1005.42
2022-07-26T02:58:17.115Z,1005.45
2022-07-26T02:59:17.104Z,1005.44
2022-07-26T03:00:17.097Z,1005.42
2022-07-26T03:01:17.169Z,1005.41
2022-07-26T03:02:17.109Z,1005.39
2022-07-26T03:03:17.063Z,1005.38
2022-07-26T03:04:17.049Z,1005.41
2022-07-26T03:05:17.042Z,1005.38
2022-07-26T03:06:17.046Z,1005.37
2022-07-26T03:07:17.021Z,1005.35
2022-07-26T03:08:17.154Z,1005.39
2022-07-26T03:09:16.999Z,1005.38
2022-07-26T03:10:16.984Z,1005.38
2022-07-26T03:11:16.978Z,1005.38
2022-07-26T03:12:17.099Z,1005.34
2022-07-26T03:13:16.952Z,1005.35
2022-07-26T03:14:17.588Z,1005.35
2022-07-26T03:15:16.931Z,1005.37
2022-07-26T03:16:21.847Z,1005.40
2022-07-26T03:17:17.924Z,1005.39
2022-07-26T03:18:16.900Z,1005.45
2022-07-26T03:19:16.976Z,1005.40
2022-07-26T03:20:16.883Z,1005.47
2022-07-26T03:21:16.872Z,1005.44
2022-07-26T03:22:16.932Z,1005.47
2022-07-26T03:23:16.868Z,1005.43
2022-07-26T03:24:17.561Z,1005.47
2022-07-26T03:25:16.846Z,1005.44
2022-07-26T03:26:16.810Z,1005.47
2022-07-26T03:27:16.808Z,1005.44
2022-07-26T03:28:19.482Z,1005.45
2022-07-26T03:29:16.973Z,1005.42
2022-07-26T03:30:16.765Z,1005.43
2022-07-26T03:31:17.824Z,1005.45
2022-07-26T03:32:16.745Z,1005.43
2022-07-26T03:33:16.726Z,1005.44
2022-07-26T03:34:16.720Z,1005.45
2022-07-26T03:35:16.709Z,1005.45
2022-07-26T03:36:16.713Z,1005.40
2022-07-26T03:37:16.684Z,1005.39
2022-07-26T03:38:16.676Z,1005.38
2022-07-26T03:39:16.663Z,1005.42
2022-07-26T03:40:16.931Z,1005.43
2022-07-26T03:41:16.677Z,1005.49
2022-07-26T03:42:16.635Z,1005.49
2022-07-26T03:43:18.984Z,1005.47
2022-07-26T03:44:16.705Z,1005.45
2022-07-26T03:45:16.595Z,1005.45
2022-07-26T03:46:16.700Z,1005.45
2022-07-26T03:47:16.588Z,1005.48
2022-07-26T03:48:16.566Z,1005.46
2022-07-26T03:49:17.420Z,1005.46
2022-07-26T03:50:16.541Z,1005.48
2022-07-26T03:51:16.527Z,1005.50
2022-07-26T03:52:16.541Z,1005.48
2022-07-26T03:53:16.506Z,1005.47
2022-07-26T03:54:16.496Z,1005.53
2022-07-26T03:55:16.484Z,1005.53
2022-07-26T03:56:16.473Z,1005.53
2022-07-26T03:57:16.634Z,1005.55
2022-07-26T03:58:16.452Z,1005.53
2022-07-26T03:59:16.441Z,1005.55
2022-07-26T04:00:16.433Z,1005.54
2022-07-26T04:01:16.504Z,1005.54
2022-07-26T04:02:16.493Z,1005.53
2022-07-26T04:03:17.107Z,1005.56
2022-07-26T04:04:16.387Z,1005.55
2022-07-26T04:05:16.370Z,1005.54
2022-07-26T04:06:17.363Z,1005.60
2022-07-26T04:07:16.423Z,1005.60
2022-07-26T04:08:16.341Z,1005.60
2022-07-26T04:09:16.325Z,1005.61
2022-07-26T04:10:16.319Z,1005.60
2022-07-26T04:11:16.306Z,1005.59
2022-07-26T04:12:16.314Z,1005.53
2022-07-26T04:13:16.282Z,1005.51
2022-07-26T04:14:16.506Z,1005.50
2022-07-26T04:15:16.264Z,1005.53
2022-07-26T04:16:16.267Z,1005.49
2022-07-26T04:17:16.300Z,1005.46
2022-07-26T04:18:16.228Z,1005.49
2022-07-26T04:19:16.217Z,1005.46
2022-07-26T04:20:16.257Z,1005.47
2022-07-26T04:21:16.200Z,1005.49
2022-07-26T04:22:16.267Z,1005.47
2022-07-26T04:23:16.171Z,1005.47
2022-07-26T04:24:16.160Z,1005.49
2022-07-26T04:25:16.158Z,1005.50
2022-07-26T04:26:16.141Z,1005.50
2022-07-26T04:27:16.151Z,1005.49
2022-07-26T04:28:16.114Z,1005.54
2022-07-26T04:29:16.106Z,1005.55
2022-07-26T04:30:16.093Z,1005.56
2022-07-26T04:31:16.170Z,1005.57
2022-07-26T04:32:16.093Z,1005.55
2022-07-26T04:33:16.070Z,1005.51
2022-07-26T04:34:16.051Z,1005.47
2022-07-26T04:35:16.044Z,1005.48
2022-07-26T04:36:16.035Z,1005.51
2022-07-26T04:37:16.162Z,1005.54
2022-07-26T04:38:16.009Z,1005.57
2022-07-26T04:39:16.577Z,1005.54
2022-07-26T04:40:15.986Z,1005.59
2022-07-26T04:41:15.967Z,1005.62
2022-07-26T04:42:16.009Z,1005.63
2022-07-26T04:43:16.269Z,1005.63
2022-07-26T04:44:16.015Z,1005.61
2022-07-26T04:45:15.928Z,1005.61
2022-07-26T04:46:16.067Z,1005.62
2022-07-26T04:47:15.923Z,1005.65
2022-07-26T04:48:16.622Z,1005.60
2022-07-26T04:49:15.944Z,1005.59
2022-07-26T04:50:16.626Z,1005.55
2022-07-26T04:51:15.863Z,1005.58
2022-07-26T04:52:15.880Z,1005.59
2022-07-26T04:53:15.860Z,1005.62
2022-07-26T04:54:15.831Z,1005.60
2022-07-26T04:55:15.830Z,1005.58
2022-07-26T04:56:15.838Z,1005.64
2022-07-26T04:57:15.819Z,1005.63
2022-07-26T04:58:15.791Z,1005.68
2022-07-26T04:59:19.839Z,1005.72
2022-07-26T05:00:24.628Z,1005.70
2022-07-26T05:01:16.830Z,1005.72
2022-07-26T05:02:15.880Z,1005.73
2022-07-26T05:03:15.844Z,1005.76
2022-07-26T05:04:15.724Z,1005.75
2022-07-26T05:05:15.713Z,1005.71
2022-07-26T05:06:15.701Z,1005.70
2022-07-26T05:07:15.692Z,1005.70
2022-07-26T05:08:15.710Z,1005.70
2022-07-26T05:09:15.665Z,1005.80
2022-07-26T05:10:15.656Z,1005.82
2022-07-26T05:11:15.791Z,1005.79
2022-07-26T05:12:15.673Z,1005.83
2022-07-26T05:13:15.621Z,1005.77
2022-07-26T05:14:15.611Z,1005.76
2022-07-26T05:15:15.605Z,1005.77
2022-07-26T05:16:15.590Z,1005.75
2022-07-26T05:17:17.829Z,1005.80
2022-07-26T05:18:15.587Z,1005.85
2022-07-26T05:19:15.558Z,1005.79
2022-07-26T05:20:15.548Z,1005.84
2022-07-26T05:21:15.537Z,1005.84
2022-07-26T05:22:15.608Z,1005.89
2022-07-26T05:23:15.533Z,1005.90
2022-07-26T05:24:15.791Z,1005.92
2022-07-26T05:25:15.509Z,1005.95
2022-07-26T05:26:15.484Z,1005.98
2022-07-26T05:27:15.487Z,1005.96
2022-07-26T05:28:15.482Z,1006.00
2022-07-26T05:29:15.493Z,1005.98
2022-07-26T05:30:15.443Z,1006.03
2022-07-26T05:31:15.502Z,1006.00
2022-07-26T05:32:15.415Z,1006.00
2022-07-26T05:33:16.484Z,1006.01
2022-07-26T05:34:15.395Z,1005.99
2022-07-26T05:35:15.388Z,1006.02
2022-07-26T05:36:15.374Z,1006.04
2022-07-26T05:37:15.360Z,1006.03
2022-07-26T05:38:15.366Z,1006.03
2022-07-26T05:39:16.210Z,1006.04
2022-07-26T05:40:15.334Z,1006.10
2022-07-26T05:41:15.365Z,1006.12
2022-07-26T05:42:15.303Z,1006.12
2022-07-26T05:43:15.312Z,1006.12
2022-07-26T05:44:15.297Z,1006.09
2022-07-26T05:45:15.371Z,1006.12
2022-07-26T05:46:15.313Z,1006.12
2022-07-26T05:47:15.251Z,1006.13
2022-07-26T05:48:15.252Z,1006.15
2022-07-26T05:49:15.308Z,1006.19
2022-07-26T05:50:15.220Z,1006.20
2022-07-26T05:51:15.208Z,1006.23
2022-07-26T05:52:15.196Z,1006.25
2022-07-26T05:53:15.198Z,1006.24
2022-07-26T05:54:15.178Z,1006.20
2022-07-26T05:55:15.164Z,1006.19
2022-07-26T05:56:15.416Z,1006.15
2022-07-26T05:57:15.144Z,1006.13
2022-07-26T05:58:15.148Z,1006.16
2022-07-26T05:59:15.120Z,1006.15
2022-07-26T06:00:15.200Z,1006.17
2022-07-26T06:01:15.108Z,1006.16
2022-07-26T06:02:15.104Z,1006.13
2022-07-26T06:03:15.097Z,1006.15
2022-07-26T06:04:15.149Z,1006.16
2022-07-26T06:05:15.057Z,1006.13
2022-07-26T06:06:15.045Z,1006.17
2022-07-26T06:07:15.040Z,1006.17
2022-07-26T06:08:15.041Z,1006.15
2022-07-26T06:09:15.016Z,1006.18
2022-07-26T06:10:15.003Z,1006.19
2022-07-26T06:11:14.995Z,1006.22
2022-07-26T06:12:14.977Z,1006.21
2022-07-26T06:13:15.655Z,1006.20
2022-07-26T06:14:15.307Z,1006.22
2022-07-26T06:15:16.019Z,1006.22
2022-07-26T06:16:14.932Z,1006.27
2022-07-26T06:17:14.951Z,1006.30
2022-07-26T06:18:14.932Z,1006.31
2022-07-26T06:19:14.907Z,1006.30
2022-07-26T06:20:14.892Z,1006.30
2022-07-26T06:21:14.872Z,1006.28
2022-07-26T06:22:14.868Z,1006.24
2022-07-26T06:23:14.873Z,1006.22
2022-07-26T06:24:14.847Z,1006.20
2022-07-26T06:25:14.834Z,1006.19
2022-07-26T06:26:14.821Z,1006.17
2022-07-26T06:27:14.810Z,1006.20
2022-07-26T06:28:14.844Z,1006.24
2022-07-26T06:29:14.789Z,1006.19
2022-07-26T06:30:14.820Z,1006.24
2022-07-26T06:31:14.837Z,1006.26
2022-07-26T06:32:14.893Z,1006.23
2022-07-26T06:33:14.760Z,1006.28
2022-07-26T06:34:14.756Z,1006.28
2022-07-26T06:35:14.722Z,1006.25
2022-07-26T06:36:15.041Z,1006.25
2022-07-26T06:37:14.704Z,1006.30
2022-07-26T06:38:14.707Z,1006.29
2022-07-26T06:39:14.678Z,1006.23
2022-07-26T06:40:14.674Z,1006.30
2022-07-26T06:41:14.658Z,1006.29
2022-07-26T06:42:14.646Z,1006.30
2022-07-26T06:43:14.670Z,1006.32
2022-07-26T06:44:14.624Z,1006.36
2022-07-26T06:45:14.615Z,1006.31
2022-07-26T06:46:14.765Z,1006.41
2022-07-26T06:47:14.952Z,1006.36
2022-07-26T06:48:14.709Z,1006.42
2022-07-26T06:49:15.480Z,1006.35
2022-07-26T06:50:14.561Z,1006.35
2022-07-26T06:51:14.678Z,1006.37
2022-07-26T06:52:14.573Z,1006.42
2022-07-26T06:53:14.587Z,1006.41
2022-07-26T06:54:14.514Z,1006.39
2022-07-26T06:55:14.505Z,1006.27
2022-07-26T06:56:14.493Z,1006.30
2022-07-26T06:57:14.480Z,1006.36
2022-07-26T06:58:14.495Z,1006.46
2022-07-26T06:59:14.466Z,1006.41
2022-07-26T07:00:14.453Z,1006.43
2022-07-26T07:01:57.032Z,1006.39
2022-07-26T07:02:15.467Z,1006.48
2022-07-26T07:03:14.416Z,1006.39
2022-07-26T07:04:14.424Z,1006.31
2022-07-26T07:05:14.486Z,1006.29
2022-07-26T07:06:14.385Z,1006.46
2022-07-26T07:07:14.376Z,1006.29
2022-07-26T07:08:14.658Z,1006.42
2022-07-26T07:09:14.371Z,1006.52
2022-07-26T07:10:14.434Z,1006.58
2022-07-26T07:11:14.376Z,1006.52
2022-07-26T07:12:14.341Z,1006.38
2022-07-26T07:13:14.310Z,1006.43
2022-07-26T07:14:14.299Z,1006.50
2022-07-26T07:15:14.287Z,1006.40
2022-07-26T07:16:14.362Z,1006.65
2022-07-26T07:17:19.848Z,1006.61
2022-07-26T07:18:15.270Z,1006.63
2022-07-26T07:19:14.363Z,1006.46
2022-07-26T07:20:14.233Z,1006.45
2022-07-26T07:21:14.222Z,1006.49
2022-07-26T07:22:14.209Z,1006.50
2022-07-26T07:23:14.247Z,1006.54
2022-07-26T07:24:14.192Z,1006.54
2022-07-26T07:25:14.780Z,1006.53
2022-07-26T07:26:14.186Z,1006.54
2022-07-26T07:27:14.186Z,1006.53
2022-07-26T07:28:14.149Z,1006.63
2022-07-26T07:29:14.157Z,1006.85
2022-07-26T07:30:14.122Z,1006.72
2022-07-26T07:31:14.145Z,1006.81
2022-07-26T07:32:18.297Z,1006.71
2022-07-26T07:33:22.077Z,1006.81
2022-07-26T07:34:15.079Z,1006.73
2022-07-26T07:35:14.072Z,1006.68
2022-07-26T07:36:14.055Z,1006.67
2022-07-26T07:37:14.056Z,1006.45
2022-07-26T07:38:14.418Z,1006.49
2022-07-26T07:39:17.474Z,1006.57
2022-07-26T07:40:14.020Z,1006.69
2022-07-26T07:41:14.018Z,1006.58
2022-07-26T07:42:14.011Z,1006.86
2022-07-26T07:43:14.013Z,1006.84
2022-07-26T07:44:14.431Z,1006.58
2022-07-26T07:45:13.963Z,1006.65
2022-07-26T07:46:14.078Z,1006.77
2022-07-26T07:47:13.983Z,1006.90
2022-07-26T07:48:13.950Z,1006.77
2022-07-26T07:49:14.113Z,1006.53
2022-07-26T07:50:13.910Z,1006.79
2022-07-26T07:51:13.910Z,1006.80
2022-07-26T07:52:13.892Z,1006.72
2022-07-26T07:53:13.894Z,1006.83
2022-07-26T07:54:13.868Z,1006.46
2022-07-26T07:55:39.963Z,1006.92
2022-07-26T07:56:14.847Z,1006.82
2022-07-26T07:57:13.878Z,1006.82
2022-07-26T07:58:13.862Z,1006.80
2022-07-26T07:59:14.934Z,1006.79
2022-07-26T08:00:27.156Z,1006.50
2022-07-26T08:01:14.834Z,1006.83
2022-07-26T08:02:13.784Z,1006.83
2022-07-26T08:03:13.770Z,1006.50
2022-07-26T08:04:13.824Z,1006.91
2022-07-26T08:05:15.187Z,1006.89
2022-07-26T08:06:13.741Z,1006.97
2022-07-26T08:07:13.728Z,1006.97
2022-07-26T08:08:13.728Z,1006.63
2022-07-26T08:09:13.940Z,1006.54
2022-07-26T08:10:13.915Z,1006.59
2022-07-26T08:11:13.686Z,1006.57
2022-07-26T08:12:13.674Z,1006.67
2022-07-26T08:13:13.665Z,1006.64
2022-07-26T08:14:13.837Z,1006.96
2022-07-26T08:15:13.671Z,1007.10
2022-07-26T08:16:13.836Z,1006.77
2022-07-26T08:17:13.622Z,1006.54
2022-07-26T08:18:14.138Z,1006.50
2022-07-26T08:19:14.432Z,1006.61
2022-07-26T08:20:15.828Z,1006.54
2022-07-26T08:21:13.587Z,1006.47
2022-07-26T08:22:13.587Z,1006.98
2022-07-26T08:23:13.560Z,1007.00
2022-07-26T08:24:13.553Z,1006.96
2022-07-26T08:25:13.555Z,1006.93
2022-07-26T08:26:13.527Z,1006.67
2022-07-26T08:27:14.241Z,1006.49
2022-07-26T08:28:37.630Z,1006.48
2022-07-26T08:29:14.740Z,1006.48
2022-07-26T08:30:13.500Z,1006.47
2022-07-26T08:31:13.688Z,1006.43
2022-07-26T08:32:13.467Z,1006.43
2022-07-26T08:33:13.470Z,1006.41
2022-07-26T08:34:13.444Z,1006.45
2022-07-26T08:35:19.880Z,1006.50
2022-07-26T08:36:14.424Z,1006.54
2022-07-26T08:37:18.005Z,1006.55
2022-07-26T08:38:13.404Z,1006.48
2022-07-26T08:39:13.409Z,1006.52
2022-07-26T08:40:13.393Z,1006.52
2022-07-26T08:41:13.368Z,1006.53
2022-07-26T08:42:13.467Z,1006.51
2022-07-26T08:43:13.354Z,1006.51
2022-07-26T08:44:13.343Z,1006.56
2022-07-26T08:45:13.352Z,1006.58
2022-07-26T08:46:14.209Z,1006.57
2022-07-26T08:47:13.321Z,1006.57
2022-07-26T08:48:18.158Z,1006.58
2022-07-26T08:49:14.685Z,1006.56
2022-07-26T08:50:13.285Z,1006.64
2022-07-26T08:51:13.261Z,1006.65
2022-07-26T08:52:13.251Z,1006.64
2022-07-26T08:53:13.395Z,1006.65
2022-07-26T08:54:13.232Z,1006.74
2022-07-26T08:55:13.231Z,1006.72
2022-07-26T08:56:13.212Z,1006.81
2022-07-26T08:57:13.196Z,1007.26
2022-07-26T08:58:14.503Z,1006.77
2022-07-26T08:59:19.088Z,1006.80
2022-07-26T09:00:14.240Z,1006.66
2022-07-26T09:01:13.578Z,1006.70
2022-07-26T09:02:13.141Z,1006.71
2022-07-26T09:03:13.893Z,1007.27
2022-07-26T09:04:13.763Z,1006.75
2022-07-26T09:05:13.176Z,1006.70
2022-07-26T09:06:13.103Z,1006.71
2022-07-26T09:07:13.087Z,1006.78
2022-07-26T09:08:13.077Z,1006.74
2022-07-26T09:09:13.068Z,1006.82
2022-07-26T09:10:13.116Z,1007.02
2022-07-26T09:11:13.045Z,1006.86
2022-07-26T09:12:13.035Z,1007.15
2022-07-26T09:13:13.026Z,1006.93
2022-07-26T09:14:13.010Z,1006.80
2022-07-26T09:15:13.028Z,1006.76
2022-07-26T09:16:13.207Z,1006.74
2022-07-26T09:17:12.987Z,1006.77
2022-07-26T09:18:12.975Z,1006.74
2022-07-26T09:19:12.968Z,1006.73
2022-07-26T09:20:13.132Z,1006.77
2022-07-26T09:21:12.941Z,1006.75
2022-07-26T09:22:12.926Z,1006.74
2022-07-26T09:23:12.931Z,1006.81
2022-07-26T09:24:12.915Z,1006.86
2022-07-26T09:25:12.923Z,1007.38
2022-07-26T09:26:12.892Z,1007.57
2022-07-26T09:27:12.874Z,1007.48
2022-07-26T09:28:12.863Z,1007.49
2022-07-26T09:29:13.599Z,1007.57
2022-07-26T09:30:12.838Z,1007.13
2022-07-26T09:31:12.980Z,1006.73
2022-07-26T09:32:12.820Z,1006.77
2022-07-26T09:33:12.904Z,1006.75
2022-07-26T09:34:13.311Z,1006.75
2022-07-26T09:35:30.076Z,1006.68
2022-07-26T09:36:13.771Z,1006.78
2022-07-26T09:37:12.834Z,1006.75
2022-07-26T09:38:12.753Z,1006.72
2022-07-26T09:39:12.762Z,1006.80
2022-07-26T09:40:12.736Z,1006.82
2022-07-26T09:41:12.733Z,1006.83
2022-07-26T09:42:28.446Z,1006.82
2022-07-26T09:43:13.708Z,1006.91
2022-07-26T09:44:13.227Z,1006.95
2022-07-26T09:45:12.682Z,1006.96
2022-07-26T09:46:12.713Z,1006.84
2022-07-26T09:47:12.666Z,1006.85
2022-07-26T09:48:12.785Z,1006.83
2022-07-26T09:49:12.753Z,1006.88
2022-07-26T09:50:12.833Z,1006.84
2022-07-26T09:51:12.619Z,1006.90
2022-07-26T09:52:12.650Z,1006.96
2022-07-26T09:53:12.632Z,1007.27
2022-07-26T09:54:13.157Z,1007.58
2022-07-26T09:55:12.593Z,1007.59
2022-07-26T09:56:12.579Z,1006.87
2022-07-26T09:57:13.128Z,1007.11
2022-07-26T09:58:12.554Z,1007.57
2022-07-26T09:59:12.556Z,1007.56
2022-07-26T10:00:12.522Z,1007.56
2022-07-26T10:01:12.636Z,1007.53
2022-07-26T10:02:12.507Z,1006.91
2022-07-26T10:03:12.569Z,1006.95
2022-07-26T10:04:12.886Z,1007.69
2022-07-26T10:05:12.478Z,1007.60
2022-07-26T10:06:12.479Z,1007.63
2022-07-26T10:07:12.468Z,1007.66
2022-07-26T10:08:12.445Z,1006.98
2022-07-26T10:09:12.440Z,1007.00
2022-07-26T10:10:12.421Z,1007.46
2022-07-26T10:11:12.429Z,1007.59
2022-07-26T10:12:12.424Z,1007.73
2022-07-26T10:13:12.395Z,1007.65
2022-07-26T10:14:12.777Z,1006.94
2022-07-26T10:15:12.378Z,1006.74
2022-07-26T10:16:12.403Z,1006.81
2022-07-26T10:17:13.370Z,1006.83
2022-07-26T10:18:16.738Z,1006.80
2022-07-26T10:19:13.350Z,1006.74
2022-07-26T10:20:17.358Z,1006.76
2022-07-26T10:21:13.316Z,1006.77
2022-07-26T10:22:12.324Z,1006.77
2022-07-26T10:23:12.295Z,1006.77
2022-07-26T10:24:13.172Z,1006.77
2022-07-26T10:25:12.274Z,1006.70
2022-07-26T10:26:12.268Z,1006.73
2022-07-26T10:27:12.275Z,1006.77
2022-07-26T10:28:12.290Z,1006.77
2022-07-26T10:29:12.236Z,1006.76
2022-07-26T10:30:12.270Z,1006.80
2022-07-26T10:31:12.258Z,1006.81
2022-07-26T10:32:12.218Z,1006.83
2022-07-26T10:33:12.194Z,1006.89
2022-07-26T10:34:12.741Z,1006.95
2022-07-26T10:35:12.412Z,1006.93
2022-07-26T10:36:12.159Z,1007.17
2022-07-26T10:37:12.170Z,1006.89
2022-07-26T10:38:12.135Z,1006.88
2022-07-26T10:39:12.331Z,1006.85
2022-07-26T10:40:12.150Z,1006.87
2022-07-26T10:41:12.109Z,1006.85
2022-07-26T10:42:12.113Z,1006.89
2022-07-26T10:43:39.052Z,1006.80
2022-07-26T10:44:13.370Z,1006.83
2022-07-26T10:45:12.071Z,1006.80
2022-07-26T10:46:12.143Z,1006.84
2022-07-26T10:47:12.086Z,1006.89
2022-07-26T10:48:12.102Z,1006.84
2022-07-26T10:49:12.101Z,1006.84
2022-07-26T10:50:12.010Z,1006.87
2022-07-26T10:51:12.000Z,1006.85
2022-07-26T10:52:12.102Z,1006.91
2022-07-26T10:53:11.992Z,1006.90
2022-07-26T10:54:12.780Z,1006.90
2022-07-26T10:55:11.960Z,1006.87
2022-07-26T10:56:13.754Z,1006.85
2022-07-26T10:57:11.978Z,1006.94
2022-07-26T10:58:11.939Z,1006.93
2022-07-26T10:59:11.920Z,1006.93
2022-07-26T11:00:11.904Z,1006.96
2022-07-26T11:01:11.924Z,1007.67
2022-07-26T11:02:11.889Z,1007.59
2022-07-26T11:03:11.957Z,1007.36
2022-07-26T11:04:12.255Z,1007.60
2022-07-26T11:05:11.855Z,1007.59
2022-07-26T11:06:11.845Z,1007.65
2022-07-26T11:07:11.908Z,1007.72
2022-07-26T11:08:11.841Z,1007.80
2022-07-26T11:09:12.764Z,1007.66
2022-07-26T11:10:11.803Z,1007.03
2022-07-26T11:11:11.792Z,1006.97
2022-07-26T11:12:11.975Z,1006.91
2022-07-26T11:13:11.820Z,1007.05
2022-07-26T11:14:12.223Z,1007.05
2022-07-26T11:15:11.829Z,1006.95
2022-07-26T11:16:11.817Z,1006.99
2022-07-26T11:17:11.733Z,1006.96
2022-07-26T11:18:11.720Z,1006.98
2022-07-26T11:19:11.729Z,1006.93
2022-07-26T11:20:11.706Z,1006.95
2022-07-26T11:21:11.694Z,1007.72
2022-07-26T11:22:11.681Z,1007.66
2022-07-26T11:23:11.715Z,1007.71
2022-07-26T11:24:12.015Z,1007.66
2022-07-26T11:25:11.651Z,1007.66
2022-07-26T11:26:12.298Z,1007.76
2022-07-26T11:27:11.630Z,1007.71
2022-07-26T11:28:11.739Z,1007.84
2022-07-26T11:29:12.766Z,1007.16
2022-07-26T11:30:12.596Z,1007.03
2022-07-26T11:31:11.626Z,1007.23
2022-07-26T11:32:17.740Z,1007.87
2022-07-26T11:33:12.587Z,1007.81
2022-07-26T11:34:11.993Z,1007.79
2022-07-26T11:35:11.554Z,1007.04
2022-07-26T11:36:11.543Z,1006.94
2022-07-26T11:37:11.546Z,1006.93
2022-07-26T11:38:12.551Z,1006.91
2022-07-26T11:39:11.532Z,1006.96
2022-07-26T11:40:11.508Z,1006.97
2022-07-26T11:41:11.496Z,1006.95
2022-07-26T11:42:11.505Z,1006.95
2022-07-26T11:43:11.499Z,1007.03
2022-07-26T11:44:11.783Z,1006.98
2022-07-26T11:45:11.782Z,1006.91
2022-07-26T11:46:11.502Z,1007.00
2022-07-26T11:47:11.439Z,1006.86
2022-07-26T11:48:11.424Z,1006.86
2022-07-26T11:49:12.467Z,1006.86
2022-07-26T11:50:16.894Z,1006.84
2022-07-26T11:51:12.406Z,1006.89
2022-07-26T11:52:11.383Z,1006.84
2022-07-26T11:53:11.404Z,1006.77
2022-07-26T11:54:11.752Z,1006.83
2022-07-26T11:55:11.360Z,1006.83
2022-07-26T11:56:11.342Z,1006.80
2022-07-26T11:57:11.331Z,1006.82
2022-07-26T11:58:11.321Z,1006.82
2022-07-26T11:59:11.311Z,1006.78
2022-07-26T12:00:11.312Z,1006.78
2022-07-26T12:01:11.287Z,1006.85
2022-07-26T12:02:11.279Z,1006.80
2022-07-26T12:03:11.283Z,1006.88
2022-07-26T12:04:11.690Z,1006.87
2022-07-26T12:05:11.496Z,1006.93